Main page
METAR-TAF:

METAR-TAF

Airports :

Cairo, Egypt

Cairo International Airport

latitude: 30-08N, longitude: 031-24E, elevation: 64 m

Current weather observation

The report was made 35 minutes ago, at 05:30 UTC
Wind 6 kt from the South/Southeast
Temperature 22°C
Humidity 60%
Pressure 1012 hPa
Visibility 10 km or more
Few clouds at a height of 2500 ft

METAR: HECA 240530Z 16006KT 9999 FEW025 22/14 Q1012 NOSIG

Time: 08:05 (06:05 UTC)

Forecast

The report was made 1 hour and 5 minutes ago, at 05:00 UTC
Forecast valid from 24 at 06 UTC to 25 at 12 UTC
Wind 8 kt from the South/Southwest
Visibility: 6000 m
Temporary
from 24 at 08 UTC to 24 at 16 UTC
Becoming
from 24 at 16 UTC to 24 at 18 UTC
Wind 10 kt from the West/Northwest
Visibility 10 km or more
Broken clouds at a height of 3000 ft

TAF: HECA 240500Z 2406/2512 20008KT 6000 NSC TEMPO 2408/2416 4000HZ BECMG 2416/2418 30010KT 9999 BKN030

Weather observations and forecasts of more than 4000 airports (METAR and TAF reports).

The available stations are represented by yellow and red dots on the map.

Hover mouse over dot to see the name of the station.

Then click to see weather observations and forecasts.

To change the map : click on the green buttons with a black cross to zoom in, on the green button with a dash to zoom out, or on the green arrows for adjacent maps.


METAR-TAF: